sensor_id;sensor_type;location;lat;lon;timestamp;P1;durP1;ratioP1;P2;durP2;ratioP2
16731;SDS011;8484;50.904;9.192;2023-05-10T00:01:27;140.40;;;132.00;;
16731;SDS011;8484;50.904;9.192;2023-05-10T00:03:54;141.23;;;132.63;;
16731;SDS011;8484;50.904;9.192;2023-05-10T00:06:21;142.70;;;134.03;;
16731;SDS011;8484;50.904;9.192;2023-05-10T00:08:47;145.03;;;136.17;;
16731;SDS011;8484;50.904;9.192;2023-05-10T00:11:15;145.27;;;136.47;;
16731;SDS011;8484;50.904;9.192;2023-05-10T00:13:42;147.00;;;137.90;;
16731;SDS011;8484;50.904;9.192;2023-05-10T00:16:09;147.10;;;138.10;;
16731;SDS011;8484;50.904;9.192;2023-05-10T00:18:38;144.03;;;135.07;;
16731;SDS011;8484;50.904;9.192;2023-05-10T00:21:04;144.50;;;135.80;;
16731;SDS011;8484;50.904;9.192;2023-05-10T00:23:32;144.67;;;135.97;;
16731;SDS011;8484;50.904;9.192;2023-05-10T00:25:58;143.50;;;134.80;;
16731;SDS011;8484;50.904;9.192;2023-05-10T00:28:28;140.00;;;131.77;;
16731;SDS011;8484;50.904;9.192;2023-05-10T00:30:55;137.57;;;129.47;;
16731;SDS011;8484;50.904;9.192;2023-05-10T00:33:22;140.23;;;132.07;;
16731;SDS011;8484;50.904;9.192;2023-05-10T00:35:49;138.43;;;130.17;;
16731;SDS011;8484;50.904;9.192;2023-05-10T00:38:15;136.53;;;128.47;;
16731;SDS011;8484;50.904;9.192;2023-05-10T00:40:42;139.77;;;131.60;;
16731;SDS011;8484;50.904;9.192;2023-05-10T00:43:09;136.30;;;128.43;;
16731;SDS011;8484;50.904;9.192;2023-05-10T00:45:37;135.97;;;128.10;;
16731;SDS011;8484;50.904;9.192;2023-05-10T00:48:07;136.23;;;128.33;;
16731;SDS011;8484;50.904;9.192;2023-05-10T00:50:34;134.80;;;127.00;;
16731;SDS011;8484;50.904;9.192;2023-05-10T00:53:01;131.90;;;124.27;;
16731;SDS011;8484;50.904;9.192;2023-05-10T00:55:28;134.23;;;126.43;;
16731;SDS011;8484;50.904;9.192;2023-05-10T00:57:56;134.30;;;126.33;;
16731;SDS011;8484;50.904;9.192;2023-05-10T01:00:23;132.40;;;124.67;;
16731;SDS011;8484;50.904;9.192;2023-05-10T01:02:52;134.00;;;126.23;;
16731;SDS011;8484;50.904;9.192;2023-05-10T01:05:20;134.03;;;126.33;;
16731;SDS011;8484;50.904;9.192;2023-05-10T01:07:47;134.80;;;126.80;;
16731;SDS011;8484;50.904;9.192;2023-05-10T01:10:14;132.90;;;125.30;;
16731;SDS011;8484;50.904;9.192;2023-05-10T01:12:44;131.40;;;123.70;;
16731;SDS011;8484;50.904;9.192;2023-05-10T01:15:12;132.20;;;124.70;;
16731;SDS011;8484;50.904;9.192;2023-05-10T01:17:42;133.33;;;125.53;;
16731;SDS011;8484;50.904;9.192;2023-05-10T01:20:11;131.43;;;123.93;;
16731;SDS011;8484;50.904;9.192;2023-05-10T01:22:44;131.33;;;123.83;;
16731;SDS011;8484;50.904;9.192;2023-05-10T01:25:32;129.43;;;122.07;;
16731;SDS011;8484;50.904;9.192;2023-05-10T01:28:15;127.90;;;120.57;;
16731;SDS011;8484;50.904;9.192;2023-05-10T01:31:12;126.37;;;119.10;;
16731;SDS011;8484;50.904;9.192;2023-05-10T01:33:56;126.10;;;118.87;;
16731;SDS011;8484;50.904;9.192;2023-05-10T01:36:29;128.00;;;120.60;;
16731;SDS011;8484;50.904;9.192;2023-05-10T01:39:00;124.40;;;117.30;;
16731;SDS011;8484;50.904;9.192;2023-05-10T01:41:35;126.17;;;118.87;;
16731;SDS011;8484;50.904;9.192;2023-05-10T01:44:08;126.37;;;119.17;;
16731;SDS011;8484;50.904;9.192;2023-05-10T01:46:39;128.47;;;121.17;;
16731;SDS011;8484;50.904;9.192;2023-05-10T01:49:08;130.03;;;122.63;;
16731;SDS011;8484;50.904;9.192;2023-05-10T01:51:46;127.33;;;120.10;;
16731;SDS011;8484;50.904;9.192;2023-05-10T01:54:17;126.53;;;119.23;;
16731;SDS011;8484;50.904;9.192;2023-05-10T01:56:46;115.90;;;109.40;;
16731;SDS011;8484;50.904;9.192;2023-05-10T01:59:17;109.30;;;103.10;;
16731;SDS011;8484;50.904;9.192;2023-05-10T02:01:45;108.83;;;102.73;;
16731;SDS011;8484;50.904;9.192;2023-05-10T02:04:15;104.77;;;98.87;;
16731;SDS011;8484;50.904;9.192;2023-05-10T02:06:43;105.20;;;99.20;;
16731;SDS011;8484;50.904;9.192;2023-05-10T02:09:12;100.67;;;94.97;;
16731;SDS011;8484;50.904;9.192;2023-05-10T02:11:41;103.40;;;97.60;;
16731;SDS011;8484;50.904;9.192;2023-05-10T02:14:09;102.20;;;95.93;;
16731;SDS011;8484;50.904;9.192;2023-05-10T02:16:38;94.23;;;88.93;;
16731;SDS011;8484;50.904;9.192;2023-05-10T02:19:06;93.20;;;87.93;;
16731;SDS011;8484;50.904;9.192;2023-05-10T02:21:36;92.87;;;87.57;;
16731;SDS011;8484;50.904;9.192;2023-05-10T02:24:05;91.33;;;86.17;;
16731;SDS011;8484;50.904;9.192;2023-05-10T02:26:33;94.07;;;88.57;;
16731;SDS011;8484;50.904;9.192;2023-05-10T02:29:02;92.70;;;87.50;;
16731;SDS011;8484;50.904;9.192;2023-05-10T02:31:29;94.20;;;88.87;;
16731;SDS011;8484;50.904;9.192;2023-05-10T02:33:58;95.10;;;89.67;;
16731;SDS011;8484;50.904;9.192;2023-05-10T02:36:26;96.57;;;90.77;;
16731;SDS011;8484;50.904;9.192;2023-05-10T02:38:56;100.43;;;94.77;;
16731;SDS011;8484;50.904;9.192;2023-05-10T02:41:26;99.57;;;93.97;;
16731;SDS011;8484;50.904;9.192;2023-05-10T02:43:59;102.23;;;96.43;;
16731;SDS011;8484;50.904;9.192;2023-05-10T02:46:32;103.97;;;98.13;;
16731;SDS011;8484;50.904;9.192;2023-05-10T02:48:58;102.60;;;96.83;;
16731;SDS011;8484;50.904;9.192;2023-05-10T02:51:28;104.50;;;98.57;;
16731;SDS011;8484;50.904;9.192;2023-05-10T02:54:00;99.93;;;94.23;;
16731;SDS011;8484;50.904;9.192;2023-05-10T02:56:35;102.03;;;96.30;;
16731;SDS011;8484;50.904;9.192;2023-05-10T02:59:05;102.60;;;96.80;;
16731;SDS011;8484;50.904;9.192;2023-05-10T03:01:36;101.00;;;95.30;;
16731;SDS011;8484;50.904;9.192;2023-05-10T03:04:03;102.70;;;96.90;;
16731;SDS011;8484;50.904;9.192;2023-05-10T03:06:35;99.13;;;93.53;;
16731;SDS011;8484;50.904;9.192;2023-05-10T03:09:07;100.83;;;95.17;;
16731;SDS011;8484;50.904;9.192;2023-05-10T03:11:37;99.97;;;94.17;;
16731;SDS011;8484;50.904;9.192;2023-05-10T03:14:16;102.83;;;96.97;;
16731;SDS011;8484;50.904;9.192;2023-05-10T03:16:52;104.00;;;97.27;;
16731;SDS011;8484;50.904;9.192;2023-05-10T03:19:26;103.03;;;97.07;;
16731;SDS011;8484;50.904;9.192;2023-05-10T03:22:07;104.10;;;98.20;;
16731;SDS011;8484;50.904;9.192;2023-05-10T03:24:38;102.27;;;96.37;;
16731;SDS011;8484;50.904;9.192;2023-05-10T03:27:12;103.97;;;98.00;;
16731;SDS011;8484;50.904;9.192;2023-05-10T03:29:41;104.20;;;98.23;;
16731;SDS011;8484;50.904;9.192;2023-05-10T03:32:12;103.83;;;97.93;;
16731;SDS011;8484;50.904;9.192;2023-05-10T03:34:41;101.57;;;95.83;;
16731;SDS011;8484;50.904;9.192;2023-05-10T03:37:08;102.80;;;96.93;;
16731;SDS011;8484;50.904;9.192;2023-05-10T03:39:35;103.67;;;97.80;;
16731;SDS011;8484;50.904;9.192;2023-05-10T03:42:03;101.63;;;95.83;;
16731;SDS011;8484;50.904;9.192;2023-05-10T03:44:30;102.90;;;97.10;;
16731;SDS011;8484;50.904;9.192;2023-05-10T03:46:58;101.83;;;96.07;;
16731;SDS011;8484;50.904;9.192;2023-05-10T03:49:30;100.57;;;94.60;;
16731;SDS011;8484;50.904;9.192;2023-05-10T03:51:57;103.87;;;97.87;;
16731;SDS011;8484;50.904;9.192;2023-05-10T03:54:24;101.70;;;95.87;;
16731;SDS011;8484;50.904;9.192;2023-05-10T03:56:53;102.03;;;96.27;;
16731;SDS011;8484;50.904;9.192;2023-05-10T03:59:21;101.70;;;95.93;;
16731;SDS011;8484;50.904;9.192;2023-05-10T04:01:48;104.20;;;98.30;;
16731;SDS011;8484;50.904;9.192;2023-05-10T04:04:15;102.00;;;96.20;;
16731;SDS011;8484;50.904;9.192;2023-05-10T04:06:44;101.10;;;95.20;;
16731;SDS011;8484;50.904;9.192;2023-05-10T04:09:11;104.63;;;98.73;;
16731;SDS011;8484;50.904;9.192;2023-05-10T04:11:38;100.23;;;94.53;;
16731;SDS011;8484;50.904;9.192;2023-05-10T04:14:05;100.13;;;94.37;;
16731;SDS011;8484;50.904;9.192;2023-05-10T04:16:33;100.67;;;94.97;;
16731;SDS011;8484;50.904;9.192;2023-05-10T04:19:00;101.40;;;95.63;;
16731;SDS011;8484;50.904;9.192;2023-05-10T04:21:27;101.07;;;95.33;;
16731;SDS011;8484;50.904;9.192;2023-05-10T04:23:55;103.03;;;97.23;;
16731;SDS011;8484;50.904;9.192;2023-05-10T04:26:22;103.20;;;97.30;;
16731;SDS011;8484;50.904;9.192;2023-05-10T04:28:50;98.77;;;93.17;;
16731;SDS011;8484;50.904;9.192;2023-05-10T04:31:16;99.53;;;93.90;;
16731;SDS011;8484;50.904;9.192;2023-05-10T04:33:45;100.90;;;95.20;;
16731;SDS011;8484;50.904;9.192;2023-05-10T04:36:11;99.70;;;94.07;;
16731;SDS011;8484;50.904;9.192;2023-05-10T04:38:38;100.67;;;94.90;;
16731;SDS011;8484;50.904;9.192;2023-05-10T04:41:05;102.50;;;96.73;;
16731;SDS011;8484;50.904;9.192;2023-05-10T04:43:32;99.33;;;93.73;;
16731;SDS011;8484;50.904;9.192;2023-05-10T04:45:59;104.13;;;98.23;;
16731;SDS011;8484;50.904;9.192;2023-05-10T04:48:26;100.37;;;94.67;;
16731;SDS011;8484;50.904;9.192;2023-05-10T04:50:54;103.20;;;97.30;;
16731;SDS011;8484;50.904;9.192;2023-05-10T04:53:21;102.53;;;96.77;;
16731;SDS011;8484;50.904;9.192;2023-05-10T04:55:48;104.43;;;98.47;;
16731;SDS011;8484;50.904;9.192;2023-05-10T04:58:15;102.07;;;96.27;;
16731;SDS011;8484;50.904;9.192;2023-05-10T05:00:42;101.00;;;95.10;;
16731;SDS011;8484;50.904;9.192;2023-05-10T05:03:09;102.23;;;96.37;;
16731;SDS011;8484;50.904;9.192;2023-05-10T05:05:35;99.07;;;93.47;;
16731;SDS011;8484;50.904;9.192;2023-05-10T05:08:05;101.03;;;95.30;;
16731;SDS011;8484;50.904;9.192;2023-05-10T05:10:32;100.30;;;94.60;;
16731;SDS011;8484;50.904;9.192;2023-05-10T05:12:58;98.93;;;93.33;;
16731;SDS011;8484;50.904;9.192;2023-05-10T05:15:25;98.90;;;93.30;;
16731;SDS011;8484;50.904;9.192;2023-05-10T05:17:52;99.83;;;94.20;;
16731;SDS011;8484;50.904;9.192;2023-05-10T05:20:19;101.43;;;95.63;;
16731;SDS011;8484;50.904;9.192;2023-05-10T05:22:46;100.33;;;94.63;;
16731;SDS011;8484;50.904;9.192;2023-05-10T05:25:15;102.83;;;97.00;;
16731;SDS011;8484;50.904;9.192;2023-05-10T05:27:42;99.37;;;93.77;;
16731;SDS011;8484;50.904;9.192;2023-05-10T05:30:09;96.13;;;90.70;;
16731;SDS011;8484;50.904;9.192;2023-05-10T05:32:36;101.00;;;95.23;;
16731;SDS011;8484;50.904;9.192;2023-05-10T05:35:03;98.30;;;92.70;;
16731;SDS011;8484;50.904;9.192;2023-05-10T05:37:31;99.50;;;93.83;;
16731;SDS011;8484;50.904;9.192;2023-05-10T05:39:57;102.43;;;96.23;;
16731;SDS011;8484;50.904;9.192;2023-05-10T05:42:27;97.47;;;91.87;;
16731;SDS011;8484;50.904;9.192;2023-05-10T05:44:54;99.20;;;93.53;;
16731;SDS011;8484;50.904;9.192;2023-05-10T05:47:21;96.80;;;91.30;;
16731;SDS011;8484;50.904;9.192;2023-05-10T05:49:48;95.20;;;89.60;;
16731;SDS011;8484;50.904;9.192;2023-05-10T05:52:14;95.03;;;89.63;;
16731;SDS011;8484;50.904;9.192;2023-05-10T05:54:42;90.70;;;85.50;;
16731;SDS011;8484;50.904;9.192;2023-05-10T05:57:09;93.57;;;87.90;;
16731;SDS011;8484;50.904;9.192;2023-05-10T05:59:37;92.83;;;87.53;;
16731;SDS011;8484;50.904;9.192;2023-05-10T06:02:07;90.43;;;85.23;;
16731;SDS011;8484;50.904;9.192;2023-05-10T06:04:33;90.57;;;85.17;;
16731;SDS011;8484;50.904;9.192;2023-05-10T06:07:00;86.27;;;81.20;;
16731;SDS011;8484;50.904;9.192;2023-05-10T06:09:27;87.70;;;82.63;;
16731;SDS011;8484;50.904;9.192;2023-05-10T06:11:54;80.77;;;75.97;;
16731;SDS011;8484;50.904;9.192;2023-05-10T06:14:21;85.53;;;80.43;;
16731;SDS011;8484;50.904;9.192;2023-05-10T06:16:49;80.80;;;76.17;;
16731;SDS011;8484;50.904;9.192;2023-05-10T06:19:16;75.60;;;71.20;;
16731;SDS011;8484;50.904;9.192;2023-05-10T06:21:43;72.90;;;68.60;;
16731;SDS011;8484;50.904;9.192;2023-05-10T06:24:10;76.53;;;72.13;;
16731;SDS011;8484;50.904;9.192;2023-05-10T06:26:37;77.10;;;72.60;;
16731;SDS011;8484;50.904;9.192;2023-05-10T06:29:05;75.27;;;70.97;;
16731;SDS011;8484;50.904;9.192;2023-05-10T06:31:31;76.07;;;71.67;;
16731;SDS011;8484;50.904;9.192;2023-05-10T06:34:00;73.80;;;69.53;;
16731;SDS011;8484;50.904;9.192;2023-05-10T06:36:26;73.90;;;69.50;;
16731;SDS011;8484;50.904;9.192;2023-05-10T06:38:54;73.90;;;69.50;;
16731;SDS011;8484;50.904;9.192;2023-05-10T06:41:21;73.93;;;69.63;;
16731;SDS011;8484;50.904;9.192;2023-05-10T06:43:48;69.10;;;65.00;;
16731;SDS011;8484;50.904;9.192;2023-05-10T06:46:15;69.30;;;65.20;;
16731;SDS011;8484;50.904;9.192;2023-05-10T06:48:42;65.70;;;61.80;;
16731;SDS011;8484;50.904;9.192;2023-05-10T06:51:11;67.27;;;63.37;;
16731;SDS011;8484;50.904;9.192;2023-05-10T06:53:38;66.40;;;62.50;;
16731;SDS011;8484;50.904;9.192;2023-05-10T06:56:05;67.33;;;63.23;;
16731;SDS011;8484;50.904;9.192;2023-05-10T06:58:32;64.87;;;61.07;;
16731;SDS011;8484;50.904;9.192;2023-05-10T07:01:02;67.07;;;63.10;;
16731;SDS011;8484;50.904;9.192;2023-05-10T07:03:30;66.47;;;62.60;;
16731;SDS011;8484;50.904;9.192;2023-05-10T07:06:03;68.37;;;64.23;;
16731;SDS011;8484;50.904;9.192;2023-05-10T07:08:33;70.13;;;65.93;;
16731;SDS011;8484;50.904;9.192;2023-05-10T07:11:01;68.80;;;64.80;;
16731;SDS011;8484;50.904;9.192;2023-05-10T07:13:28;66.00;;;62.20;;
16731;SDS011;8484;50.904;9.192;2023-05-10T07:15:56;64.70;;;60.90;;
16731;SDS011;8484;50.904;9.192;2023-05-10T07:18:23;64.60;;;60.90;;
16731;SDS011;8484;50.904;9.192;2023-05-10T07:20:50;65.53;;;61.73;;
16731;SDS011;8484;50.904;9.192;2023-05-10T07:23:17;63.60;;;59.90;;
16731;SDS011;8484;50.904;9.192;2023-05-10T07:25:46;69.07;;;65.07;;
16731;SDS011;8484;50.904;9.192;2023-05-10T07:28:13;67.73;;;63.83;;
16731;SDS011;8484;50.904;9.192;2023-05-10T07:30:41;70.17;;;65.87;;
16731;SDS011;8484;50.904;9.192;2023-05-10T07:33:09;70.10;;;66.00;;
16731;SDS011;8484;50.904;9.192;2023-05-10T07:35:36;75.30;;;70.60;;
16731;SDS011;8484;50.904;9.192;2023-05-10T07:38:03;71.97;;;67.80;;
16731;SDS011;8484;50.904;9.192;2023-05-10T07:40:30;70.40;;;66.30;;
16731;SDS011;8484;50.904;9.192;2023-05-10T07:42:59;69.83;;;65.77;;
16731;SDS011;8484;50.904;9.192;2023-05-10T07:45:26;68.93;;;64.87;;
16731;SDS011;8484;50.904;9.192;2023-05-10T07:47:54;72.80;;;68.60;;
16731;SDS011;8484;50.904;9.192;2023-05-10T07:50:20;70.93;;;66.83;;
16731;SDS011;8484;50.904;9.192;2023-05-10T07:52:47;73.63;;;69.33;;
16731;SDS011;8484;50.904;9.192;2023-05-10T07:55:14;77.50;;;73.07;;
16731;SDS011;8484;50.904;9.192;2023-05-10T07:57:41;78.90;;;74.33;;
16731;SDS011;8484;50.904;9.192;2023-05-10T08:00:11;76.13;;;71.73;;
16731;SDS011;8484;50.904;9.192;2023-05-10T08:02:39;69.57;;;65.50;;
16731;SDS011;8484;50.904;9.192;2023-05-10T08:05:07;74.40;;;70.10;;
16731;SDS011;8484;50.904;9.192;2023-05-10T08:07:34;76.97;;;72.57;;
16731;SDS011;8484;50.904;9.192;2023-05-10T08:10:01;68.37;;;64.37;;
16731;SDS011;8484;50.904;9.192;2023-05-10T08:12:28;67.40;;;63.43;;
16731;SDS011;8484;50.904;9.192;2023-05-10T08:14:55;66.33;;;62.43;;
16731;SDS011;8484;50.904;9.192;2023-05-10T08:17:25;69.53;;;65.43;;
16731;SDS011;8484;50.904;9.192;2023-05-10T08:19:52;64.30;;;60.53;;
16731;SDS011;8484;50.904;9.192;2023-05-10T08:22:19;62.83;;;59.13;;
16731;SDS011;8484;50.904;9.192;2023-05-10T08:24:45;64.83;;;60.93;;
16731;SDS011;8484;50.904;9.192;2023-05-10T08:27:12;59.17;;;55.67;;
16731;SDS011;8484;50.904;9.192;2023-05-10T08:29:39;59.00;;;55.50;;
16731;SDS011;8484;50.904;9.192;2023-05-10T08:32:06;57.20;;;53.80;;
16731;SDS011;8484;50.904;9.192;2023-05-10T08:34:35;57.50;;;54.20;;
16731;SDS011;8484;50.904;9.192;2023-05-10T08:37:02;54.40;;;51.23;;
16731;SDS011;8484;50.904;9.192;2023-05-10T08:39:29;58.63;;;55.23;;
16731;SDS011;8484;50.904;9.192;2023-05-10T08:42:00;59.03;;;55.57;;
16731;SDS011;8484;50.904;9.192;2023-05-10T08:44:30;52.37;;;49.37;;
16731;SDS011;8484;50.904;9.192;2023-05-10T08:47:01;51.90;;;48.90;;
16731;SDS011;8484;50.904;9.192;2023-05-10T08:49:30;53.87;;;50.67;;
16731;SDS011;8484;50.904;9.192;2023-05-10T08:52:01;49.57;;;46.77;;
16731;SDS011;8484;50.904;9.192;2023-05-10T08:54:31;49.33;;;46.53;;
16731;SDS011;8484;50.904;9.192;2023-05-10T08:56:59;48.27;;;45.57;;
16731;SDS011;8484;50.904;9.192;2023-05-10T08:59:31;55.47;;;52.27;;
16731;SDS011;8484;50.904;9.192;2023-05-10T09:01:58;48.17;;;45.40;;
16731;SDS011;8484;50.904;9.192;2023-05-10T09:04:30;47.20;;;44.50;;
16731;SDS011;8484;50.904;9.192;2023-05-10T09:06:57;44.70;;;42.10;;
16731;SDS011;8484;50.904;9.192;2023-05-10T09:09:25;40.40;;;38.10;;
16731;SDS011;8484;50.904;9.192;2023-05-10T09:11:54;42.43;;;39.83;;
16731;SDS011;8484;50.904;9.192;2023-05-10T09:14:23;40.60;;;38.30;;
16731;SDS011;8484;50.904;9.192;2023-05-10T09:16:51;41.13;;;38.73;;
16731;SDS011;8484;50.904;9.192;2023-05-10T09:19:20;41.27;;;38.97;;
16731;SDS011;8484;50.904;9.192;2023-05-10T09:21:47;39.37;;;37.07;;
16731;SDS011;8484;50.904;9.192;2023-05-10T09:24:15;41.40;;;39.00;;
16731;SDS011;8484;50.904;9.192;2023-05-10T09:26:47;37.80;;;35.60;;
16731;SDS011;8484;50.904;9.192;2023-05-10T09:29:14;36.40;;;34.30;;
16731;SDS011;8484;50.904;9.192;2023-05-10T09:31:45;37.27;;;35.17;;
16731;SDS011;8484;50.904;9.192;2023-05-10T09:34:16;35.77;;;33.77;;
16731;SDS011;8484;50.904;9.192;2023-05-10T09:36:53;37.53;;;35.37;;
16731;SDS011;8484;50.904;9.192;2023-05-10T09:39:22;42.30;;;39.80;;
16731;SDS011;8484;50.904;9.192;2023-05-10T09:41:58;39.40;;;37.20;;
16731;SDS011;8484;50.904;9.192;2023-05-10T09:44:28;40.23;;;37.83;;
16731;SDS011;8484;50.904;9.192;2023-05-10T09:46:55;42.30;;;39.80;;
16731;SDS011;8484;50.904;9.192;2023-05-10T09:49:22;43.10;;;40.60;;
16731;SDS011;8484;50.904;9.192;2023-05-10T09:52:00;37.50;;;35.30;;
16731;SDS011;8484;50.904;9.192;2023-05-10T09:54:28;36.33;;;34.23;;
16731;SDS011;8484;50.904;9.192;2023-05-10T09:56:55;36.40;;;34.30;;
16731;SDS011;8484;50.904;9.192;2023-05-10T09:59:25;39.80;;;37.50;;
16731;SDS011;8484;50.904;9.192;2023-05-10T10:01:55;36.60;;;34.47;;
16731;SDS011;8484;50.904;9.192;2023-05-10T10:04:23;40.10;;;37.80;;
16731;SDS011;8484;50.904;9.192;2023-05-10T10:07:03;36.60;;;34.50;;
16731;SDS011;8484;50.904;9.192;2023-05-10T10:09:31;35.83;;;33.73;;
16731;SDS011;8484;50.904;9.192;2023-05-10T10:12:00;36.60;;;34.50;;
16731;SDS011;8484;50.904;9.192;2023-05-10T10:14:30;35.83;;;33.83;;
16731;SDS011;8484;50.904;9.192;2023-05-10T10:16:57;33.50;;;31.50;;
16731;SDS011;8484;50.904;9.192;2023-05-10T10:19:27;33.53;;;31.53;;
16731;SDS011;8484;50.904;9.192;2023-05-10T10:21:55;34.20;;;32.20;;
16731;SDS011;8484;50.904;9.192;2023-05-10T10:24:22;33.90;;;32.00;;
16731;SDS011;8484;50.904;9.192;2023-05-10T10:26:49;33.67;;;31.77;;
16731;SDS011;8484;50.904;9.192;2023-05-10T10:29:21;31.77;;;29.87;;
16731;SDS011;8484;50.904;9.192;2023-05-10T10:31:55;30.97;;;29.17;;
16731;SDS011;8484;50.904;9.192;2023-05-10T10:34:36;32.40;;;30.50;;
16731;SDS011;8484;50.904;9.192;2023-05-10T10:37:05;32.50;;;30.43;;
16731;SDS011;8484;50.904;9.192;2023-05-10T10:39:33;27.83;;;26.13;;
16731;SDS011;8484;50.904;9.192;2023-05-10T10:42:02;26.70;;;25.13;;
16731;SDS011;8484;50.904;9.192;2023-05-10T10:44:33;28.73;;;26.93;;
16731;SDS011;8484;50.904;9.192;2023-05-10T10:47:09;31.70;;;29.90;;
16731;SDS011;8484;50.904;9.192;2023-05-10T10:49:50;31.20;;;29.40;;
16731;SDS011;8484;50.904;9.192;2023-05-10T10:52:21;30.50;;;28.70;;
16731;SDS011;8484;50.904;9.192;2023-05-10T10:54:53;32.23;;;30.27;;
16731;SDS011;8484;50.904;9.192;2023-05-10T10:57:24;35.30;;;33.30;;
16731;SDS011;8484;50.904;9.192;2023-05-10T10:59:53;34.83;;;32.83;;
16731;SDS011;8484;50.904;9.192;2023-05-10T11:02:44;36.17;;;34.07;;
16731;SDS011;8484;50.904;9.192;2023-05-10T11:08:17;34.83;;;32.83;;
16731;SDS011;8484;50.904;9.192;2023-05-10T11:13:37;34.03;;;32.03;;
16731;SDS011;8484;50.904;9.192;2023-05-10T11:16:13;34.97;;;32.97;;
16731;SDS011;8484;50.904;9.192;2023-05-10T11:18:53;35.53;;;33.53;;
16731;SDS011;8484;50.904;9.192;2023-05-10T11:21:24;34.60;;;32.60;;
16731;SDS011;8484;50.904;9.192;2023-05-10T11:23:51;35.27;;;33.27;;
16731;SDS011;8484;50.904;9.192;2023-05-10T11:26:21;38.17;;;35.97;;
16731;SDS011;8484;50.904;9.192;2023-05-10T11:28:50;41.27;;;38.80;;
16731;SDS011;8484;50.904;9.192;2023-05-10T11:31:18;45.53;;;42.83;;
16731;SDS011;8484;50.904;9.192;2023-05-10T11:33:46;44.80;;;42.20;;
16731;SDS011;8484;50.904;9.192;2023-05-10T11:36:17;44.00;;;41.40;;
16731;SDS011;8484;50.904;9.192;2023-05-10T11:38:45;44.00;;;41.40;;
16731;SDS011;8484;50.904;9.192;2023-05-10T11:41:18;44.13;;;41.57;;
16731;SDS011;8484;50.904;9.192;2023-05-10T11:43:46;42.03;;;39.53;;
16731;SDS011;8484;50.904;9.192;2023-05-10T11:46:18;41.30;;;38.70;;
16731;SDS011;8484;50.904;9.192;2023-05-10T11:48:46;44.33;;;41.53;;
16731;SDS011;8484;50.904;9.192;2023-05-10T11:51:19;41.33;;;38.93;;
16731;SDS011;8484;50.904;9.192;2023-05-10T11:53:46;41.17;;;38.73;;
16731;SDS011;8484;50.904;9.192;2023-05-10T11:56:13;37.93;;;35.73;;
16731;SDS011;8484;50.904;9.192;2023-05-10T11:58:41;36.47;;;34.37;;
16731;SDS011;8484;50.904;9.192;2023-05-10T12:01:08;39.53;;;37.23;;
16731;SDS011;8484;50.904;9.192;2023-05-10T12:03:36;36.83;;;34.73;;
16731;SDS011;8484;50.904;9.192;2023-05-10T12:06:03;33.97;;;31.87;;
16731;SDS011;8484;50.904;9.192;2023-05-10T12:08:32;32.73;;;30.83;;
16731;SDS011;8484;50.904;9.192;2023-05-10T12:11:06;31.73;;;29.93;;
16731;SDS011;8484;50.904;9.192;2023-05-10T12:13:37;32.70;;;30.80;;
16731;SDS011;8484;50.904;9.192;2023-05-10T12:16:15;32.00;;;30.10;;
16731;SDS011;8484;50.904;9.192;2023-05-10T12:18:43;31.80;;;30.00;;
16731;SDS011;8484;50.904;9.192;2023-05-10T12:21:10;31.93;;;30.03;;
16731;SDS011;8484;50.904;9.192;2023-05-10T12:23:39;32.20;;;30.30;;
16731;SDS011;8484;50.904;9.192;2023-05-10T12:26:06;32.47;;;30.57;;
16731;SDS011;8484;50.904;9.192;2023-05-10T12:28:39;29.20;;;27.50;;
16731;SDS011;8484;50.904;9.192;2023-05-10T12:31:06;32.13;;;30.17;;
16731;SDS011;8484;50.904;9.192;2023-05-10T12:33:37;29.90;;;28.20;;
16731;SDS011;8484;50.904;9.192;2023-05-10T12:36:06;27.20;;;25.60;;
16731;SDS011;8484;50.904;9.192;2023-05-10T12:38:42;30.37;;;28.63;;
16731;SDS011;8484;50.904;9.192;2023-05-10T12:41:13;29.33;;;27.63;;
16731;SDS011;8484;50.904;9.192;2023-05-10T12:43:41;29.00;;;27.33;;
16731;SDS011;8484;50.904;9.192;2023-05-10T12:46:08;28.13;;;26.53;;
16731;SDS011;8484;50.904;9.192;2023-05-10T12:48:36;27.80;;;26.20;;
16731;SDS011;8484;50.904;9.192;2023-05-10T12:51:04;27.73;;;26.07;;
16731;SDS011;8484;50.904;9.192;2023-05-10T12:53:34;30.23;;;28.43;;
16731;SDS011;8484;50.904;9.192;2023-05-10T12:56:02;30.50;;;28.60;;
16731;SDS011;8484;50.904;9.192;2023-05-10T12:58:30;30.83;;;29.03;;
16731;SDS011;8484;50.904;9.192;2023-05-10T13:00:57;30.93;;;29.13;;
16731;SDS011;8484;50.904;9.192;2023-05-10T13:03:24;30.07;;;28.27;;
16731;SDS011;8484;50.904;9.192;2023-05-10T13:05:52;30.10;;;28.30;;
16731;SDS011;8484;50.904;9.192;2023-05-10T13:08:19;32.07;;;30.27;;
16731;SDS011;8484;50.904;9.192;2023-05-10T13:10:46;35.63;;;33.53;;
16731;SDS011;8484;50.904;9.192;2023-05-10T13:13:15;34.20;;;32.20;;
16731;SDS011;8484;50.904;9.192;2023-05-10T13:15:42;33.13;;;31.13;;
16731;SDS011;8484;50.904;9.192;2023-05-10T13:18:09;33.07;;;31.17;;
16731;SDS011;8484;50.904;9.192;2023-05-10T13:20:36;34.83;;;32.83;;
16731;SDS011;8484;50.904;9.192;2023-05-10T13:23:03;33.97;;;32.00;;
16731;SDS011;8484;50.904;9.192;2023-05-10T13:25:30;34.53;;;32.43;;
16731;SDS011;8484;50.904;9.192;2023-05-10T13:27:59;34.97;;;32.87;;
16731;SDS011;8484;50.904;9.192;2023-05-10T13:30:27;35.80;;;33.60;;
16731;SDS011;8484;50.904;9.192;2023-05-10T13:32:54;35.07;;;32.97;;
16731;SDS011;8484;50.904;9.192;2023-05-10T13:35:21;34.57;;;32.50;;
16731;SDS011;8484;50.904;9.192;2023-05-10T13:37:48;33.93;;;32.00;;
16731;SDS011;8484;50.904;9.192;2023-05-10T13:40:15;33.77;;;31.27;;
16731;SDS011;8484;50.904;9.192;2023-05-10T13:42:42;33.03;;;31.07;;
16731;SDS011;8484;50.904;9.192;2023-05-10T13:45:09;33.37;;;31.37;;
16731;SDS011;8484;50.904;9.192;2023-05-10T13:47:50;30.53;;;28.73;;
16731;SDS011;8484;50.904;9.192;2023-05-10T13:50:17;31.90;;;30.00;;
16731;SDS011;8484;50.904;9.192;2023-05-10T13:52:47;30.30;;;28.50;;
16731;SDS011;8484;50.904;9.192;2023-05-10T13:59:09;31.03;;;29.23;;
16731;SDS011;8484;50.904;9.192;2023-05-10T14:01:48;30.17;;;28.47;;
16731;SDS011;8484;50.904;9.192;2023-05-10T14:04:30;30.47;;;28.57;;
16731;SDS011;8484;50.904;9.192;2023-05-10T14:07:05;28.80;;;27.20;;
16731;SDS011;8484;50.904;9.192;2023-05-10T14:09:57;28.37;;;26.67;;
16731;SDS011;8484;50.904;9.192;2023-05-10T14:12:57;31.13;;;29.37;;
16731;SDS011;8484;50.904;9.192;2023-05-10T14:15:31;31.77;;;29.87;;
16731;SDS011;8484;50.904;9.192;2023-05-10T14:17:58;29.43;;;27.83;;
16731;SDS011;8484;50.904;9.192;2023-05-10T14:20:26;31.47;;;29.67;;
16731;SDS011;8484;50.904;9.192;2023-05-10T14:22:53;30.37;;;28.67;;
16731;SDS011;8484;50.904;9.192;2023-05-10T14:25:23;31.20;;;29.17;;
16731;SDS011;8484;50.904;9.192;2023-05-10T14:27:50;29.83;;;28.03;;
16731;SDS011;8484;50.904;9.192;2023-05-10T14:30:22;32.00;;;30.20;;
16731;SDS011;8484;50.904;9.192;2023-05-10T14:32:53;29.67;;;27.87;;
16731;SDS011;8484;50.904;9.192;2023-05-10T14:35:20;29.27;;;27.67;;
16731;SDS011;8484;50.904;9.192;2023-05-10T14:37:48;28.70;;;27.10;;
16731;SDS011;8484;50.904;9.192;2023-05-10T14:40:15;27.63;;;26.13;;
16731;SDS011;8484;50.904;9.192;2023-05-10T14:42:42;27.67;;;26.13;;
16731;SDS011;8484;50.904;9.192;2023-05-10T14:45:09;30.07;;;28.37;;
16731;SDS011;8484;50.904;9.192;2023-05-10T14:47:37;28.67;;;27.07;;
16731;SDS011;8484;50.904;9.192;2023-05-10T14:50:05;29.10;;;27.43;;